sensor_id;sensor_type;location;lat;lon;timestamp;P1;durP1;ratioP1;P2;durP2;ratioP2
10174;SDS011;18221;38.704;0.152;2023-03-01T00:02:52;2.00;;;1.80;;
10174;SDS011;18221;38.704;0.152;2023-03-01T00:05:20;4.13;;;1.90;;
10174;SDS011;18221;38.704;0.152;2023-03-01T00:07:52;3.37;;;2.10;;
10174;SDS011;18221;38.704;0.152;2023-03-01T00:10:20;3.53;;;1.90;;
10174;SDS011;18221;38.704;0.152;2023-03-01T00:12:48;3.90;;;1.80;;
10174;SDS011;18221;38.704;0.152;2023-03-01T00:15:17;4.27;;;2.07;;
10174;SDS011;18221;38.704;0.152;2023-03-01T00:17:45;4.60;;;2.13;;
10174;SDS011;18221;38.704;0.152;2023-03-01T00:20:15;2.40;;;1.63;;
10174;SDS011;18221;38.704;0.152;2023-03-01T00:22:44;4.30;;;2.10;;
10174;SDS011;18221;38.704;0.152;2023-03-01T00:25:12;2.07;;;1.80;;
10174;SDS011;18221;38.704;0.152;2023-03-01T00:27:40;2.77;;;1.70;;
10174;SDS011;18221;38.704;0.152;2023-03-01T00:30:09;2.27;;;1.80;;
10174;SDS011;18221;38.704;0.152;2023-03-01T00:32:38;4.30;;;1.80;;
10174;SDS011;18221;38.704;0.152;2023-03-01T00:35:07;2.33;;;1.73;;
10174;SDS011;18221;38.704;0.152;2023-03-01T00:37:37;3.10;;;1.70;;
10174;SDS011;18221;38.704;0.152;2023-03-01T00:40:09;2.00;;;1.63;;
10174;SDS011;18221;38.704;0.152;2023-03-01T00:42:41;1.70;;;1.60;;
10174;SDS011;18221;38.704;0.152;2023-03-01T00:45:09;4.30;;;1.90;;
10174;SDS011;18221;38.704;0.152;2023-03-01T00:47:38;3.03;;;1.77;;
10174;SDS011;18221;38.704;0.152;2023-03-01T00:50:07;1.90;;;1.57;;
10174;SDS011;18221;38.704;0.152;2023-03-01T00:52:39;2.67;;;1.60;;
10174;SDS011;18221;38.704;0.152;2023-03-01T00:55:07;2.27;;;1.60;;
10174;SDS011;18221;38.704;0.152;2023-03-01T00:57:36;1.60;;;1.50;;
10174;SDS011;18221;38.704;0.152;2023-03-01T01:00:05;1.63;;;1.43;;
10174;SDS011;18221;38.704;0.152;2023-03-01T01:02:35;3.50;;;1.70;;
10174;SDS011;18221;38.704;0.152;2023-03-01T01:05:04;1.50;;;1.40;;
10174;SDS011;18221;38.704;0.152;2023-03-01T01:07:33;1.67;;;1.47;;
10174;SDS011;18221;38.704;0.152;2023-03-01T01:10:04;1.80;;;1.40;;
10174;SDS011;18221;38.704;0.152;2023-03-01T01:12:33;1.93;;;1.50;;
10174;SDS011;18221;38.704;0.152;2023-03-01T01:15:01;1.53;;;1.37;;
10174;SDS011;18221;38.704;0.152;2023-03-01T01:17:29;2.77;;;1.70;;
10174;SDS011;18221;38.704;0.152;2023-03-01T01:19:58;1.43;;;1.33;;
10174;SDS011;18221;38.704;0.152;2023-03-01T01:22:26;2.63;;;1.40;;
10174;SDS011;18221;38.704;0.152;2023-03-01T01:24:54;1.63;;;1.40;;
10174;SDS011;18221;38.704;0.152;2023-03-01T01:27:24;2.23;;;1.50;;
10174;SDS011;18221;38.704;0.152;2023-03-01T01:29:52;2.13;;;1.60;;
10174;SDS011;18221;38.704;0.152;2023-03-01T01:32:22;1.77;;;1.60;;
10174;SDS011;18221;38.704;0.152;2023-03-01T01:34:50;2.67;;;1.50;;
10174;SDS011;18221;38.704;0.152;2023-03-01T01:37:18;2.33;;;1.53;;
10174;SDS011;18221;38.704;0.152;2023-03-01T01:39:47;2.00;;;1.70;;
10174;SDS011;18221;38.704;0.152;2023-03-01T01:42:15;1.70;;;1.60;;
10174;SDS011;18221;38.704;0.152;2023-03-01T01:44:47;2.47;;;1.53;;
10174;SDS011;18221;38.704;0.152;2023-03-01T01:47:16;4.07;;;1.60;;
10174;SDS011;18221;38.704;0.152;2023-03-01T01:49:49;3.13;;;1.60;;
10174;SDS011;18221;38.704;0.152;2023-03-01T01:52:23;1.50;;;1.40;;
10174;SDS011;18221;38.704;0.152;2023-03-01T01:54:59;2.80;;;1.73;;
10174;SDS011;18221;38.704;0.152;2023-03-01T01:57:35;3.73;;;1.40;;
10174;SDS011;18221;38.704;0.152;2023-03-01T02:00:11;2.10;;;1.50;;
10174;SDS011;18221;38.704;0.152;2023-03-01T02:02:42;2.53;;;1.60;;
10174;SDS011;18221;38.704;0.152;2023-03-01T02:05:15;2.90;;;1.53;;
10174;SDS011;18221;38.704;0.152;2023-03-01T02:07:52;2.17;;;1.60;;
10174;SDS011;18221;38.704;0.152;2023-03-01T02:10:21;2.27;;;1.70;;
10174;SDS011;18221;38.704;0.152;2023-03-01T02:12:51;3.20;;;1.83;;
10174;SDS011;18221;38.704;0.152;2023-03-01T02:15:22;2.53;;;1.50;;
10174;SDS011;18221;38.704;0.152;2023-03-01T02:17:51;1.77;;;1.57;;
10174;SDS011;18221;38.704;0.152;2023-03-01T02:20:22;2.00;;;1.90;;
10174;SDS011;18221;38.704;0.152;2023-03-01T02:22:59;3.10;;;1.60;;
10174;SDS011;18221;38.704;0.152;2023-03-01T02:25:31;2.07;;;1.50;;
10174;SDS011;18221;38.704;0.152;2023-03-01T02:28:10;3.83;;;1.60;;
10174;SDS011;18221;38.704;0.152;2023-03-01T02:30:57;1.73;;;1.63;;
10174;SDS011;18221;38.704;0.152;2023-03-01T02:33:42;2.10;;;1.80;;
10174;SDS011;18221;38.704;0.152;2023-03-01T02:36:14;3.13;;;1.90;;
10174;SDS011;18221;38.704;0.152;2023-03-01T02:38:46;4.17;;;1.50;;
10174;SDS011;18221;38.704;0.152;2023-03-01T02:41:17;1.70;;;1.60;;
10174;SDS011;18221;38.704;0.152;2023-03-01T02:43:50;2.37;;;1.80;;
10174;SDS011;18221;38.704;0.152;2023-03-01T02:46:19;3.43;;;2.00;;
10174;SDS011;18221;38.704;0.152;2023-03-01T02:48:50;2.87;;;1.73;;
10174;SDS011;18221;38.704;0.152;2023-03-01T02:51:31;2.57;;;1.87;;
10174;SDS011;18221;38.704;0.152;2023-03-01T02:54:17;3.60;;;2.03;;
10174;SDS011;18221;38.704;0.152;2023-03-01T02:56:53;5.60;;;2.10;;
10174;SDS011;18221;38.704;0.152;2023-03-01T02:59:24;3.37;;;1.90;;
10174;SDS011;18221;38.704;0.152;2023-03-01T03:02:00;8.53;;;2.30;;
10174;SDS011;18221;38.704;0.152;2023-03-01T03:04:28;3.83;;;2.33;;
10174;SDS011;18221;38.704;0.152;2023-03-01T03:06:57;2.67;;;2.40;;
10174;SDS011;18221;38.704;0.152;2023-03-01T03:09:25;4.47;;;2.17;;
10174;SDS011;18221;38.704;0.152;2023-03-01T03:11:53;6.67;;;2.40;;
10174;SDS011;18221;38.704;0.152;2023-03-01T03:14:22;2.77;;;1.93;;
10174;SDS011;18221;38.704;0.152;2023-03-01T03:16:51;3.27;;;1.90;;
10174;SDS011;18221;38.704;0.152;2023-03-01T03:19:19;2.93;;;2.07;;
10174;SDS011;18221;38.704;0.152;2023-03-01T03:21:47;2.33;;;2.10;;
10174;SDS011;18221;38.704;0.152;2023-03-01T03:24:15;2.40;;;2.00;;
10174;SDS011;18221;38.704;0.152;2023-03-01T03:26:44;4.40;;;2.10;;
10174;SDS011;18221;38.704;0.152;2023-03-01T03:29:12;5.37;;;2.40;;
10174;SDS011;18221;38.704;0.152;2023-03-01T03:31:42;6.40;;;2.47;;
10174;SDS011;18221;38.704;0.152;2023-03-01T03:34:10;5.20;;;2.30;;
10174;SDS011;18221;38.704;0.152;2023-03-01T03:36:43;8.23;;;2.83;;
10174;SDS011;18221;38.704;0.152;2023-03-01T03:39:11;4.93;;;2.40;;
10174;SDS011;18221;38.704;0.152;2023-03-01T03:41:39;7.73;;;3.07;;
10174;SDS011;18221;38.704;0.152;2023-03-01T03:44:07;7.87;;;3.17;;
10174;SDS011;18221;38.704;0.152;2023-03-01T03:46:35;7.00;;;2.73;;
10174;SDS011;18221;38.704;0.152;2023-03-01T03:49:05;4.20;;;2.33;;
10174;SDS011;18221;38.704;0.152;2023-03-01T03:51:34;7.17;;;2.80;;
10174;SDS011;18221;38.704;0.152;2023-03-01T03:54:02;9.17;;;2.90;;
10174;SDS011;18221;38.704;0.152;2023-03-01T03:56:30;4.50;;;2.87;;
10174;SDS011;18221;38.704;0.152;2023-03-01T03:58:58;9.57;;;2.87;;
10174;SDS011;18221;38.704;0.152;2023-03-01T04:01:26;6.13;;;3.07;;
10174;SDS011;18221;38.704;0.152;2023-03-01T04:03:55;7.17;;;2.87;;
10174;SDS011;18221;38.704;0.152;2023-03-01T04:06:31;6.80;;;2.90;;
10174;SDS011;18221;38.704;0.152;2023-03-01T04:08:59;5.10;;;3.13;;
10174;SDS011;18221;38.704;0.152;2023-03-01T04:11:28;8.17;;;3.40;;
10174;SDS011;18221;38.704;0.152;2023-03-01T04:13:57;6.77;;;3.00;;
10174;SDS011;18221;38.704;0.152;2023-03-01T04:16:26;7.50;;;3.07;;
10174;SDS011;18221;38.704;0.152;2023-03-01T04:18:55;7.40;;;2.90;;
10174;SDS011;18221;38.704;0.152;2023-03-01T04:21:25;7.00;;;3.30;;
10174;SDS011;18221;38.704;0.152;2023-03-01T04:23:55;5.20;;;3.20;;
10174;SDS011;18221;38.704;0.152;2023-03-01T04:26:23;6.37;;;3.00;;
10174;SDS011;18221;38.704;0.152;2023-03-01T04:28:52;6.53;;;3.13;;
10174;SDS011;18221;38.704;0.152;2023-03-01T04:31:20;5.47;;;2.30;;
10174;SDS011;18221;38.704;0.152;2023-03-01T04:33:49;6.23;;;2.60;;
10174;SDS011;18221;38.704;0.152;2023-03-01T04:36:20;6.30;;;2.53;;
10174;SDS011;18221;38.704;0.152;2023-03-01T04:38:52;8.83;;;2.70;;
10174;SDS011;18221;38.704;0.152;2023-03-01T04:41:23;5.73;;;2.77;;
10174;SDS011;18221;38.704;0.152;2023-03-01T04:43:52;7.23;;;3.17;;
10174;SDS011;18221;38.704;0.152;2023-03-01T04:46:20;5.83;;;2.97;;
10174;SDS011;18221;38.704;0.152;2023-03-01T04:48:49;6.77;;;2.93;;
10174;SDS011;18221;38.704;0.152;2023-03-01T04:51:17;6.37;;;3.10;;
10174;SDS011;18221;38.704;0.152;2023-03-01T04:53:45;6.60;;;3.00;;
10174;SDS011;18221;38.704;0.152;2023-03-01T04:56:15;7.43;;;2.87;;
10174;SDS011;18221;38.704;0.152;2023-03-01T04:58:44;6.60;;;3.40;;
10174;SDS011;18221;38.704;0.152;2023-03-01T05:01:13;6.03;;;3.17;;
10174;SDS011;18221;38.704;0.152;2023-03-01T05:03:45;10.37;;;3.50;;
10174;SDS011;18221;38.704;0.152;2023-03-01T05:06:16;7.20;;;3.20;;
10174;SDS011;18221;38.704;0.152;2023-03-01T05:08:46;5.50;;;3.33;;
10174;SDS011;18221;38.704;0.152;2023-03-01T05:11:16;6.30;;;3.37;;
10174;SDS011;18221;38.704;0.152;2023-03-01T05:13:45;8.50;;;3.27;;
10174;SDS011;18221;38.704;0.152;2023-03-01T05:16:15;10.63;;;3.37;;
10174;SDS011;18221;38.704;0.152;2023-03-01T05:18:46;8.53;;;3.53;;
10174;SDS011;18221;38.704;0.152;2023-03-01T05:21:16;10.87;;;3.70;;
10174;SDS011;18221;38.704;0.152;2023-03-01T05:23:44;10.50;;;3.63;;
10174;SDS011;18221;38.704;0.152;2023-03-01T05:26:13;8.37;;;3.40;;
10174;SDS011;18221;38.704;0.152;2023-03-01T05:28:44;5.97;;;3.50;;
10174;SDS011;18221;38.704;0.152;2023-03-01T05:31:12;8.20;;;3.77;;
10174;SDS011;18221;38.704;0.152;2023-03-01T05:33:41;9.47;;;3.80;;
10174;SDS011;18221;38.704;0.152;2023-03-01T05:36:09;9.83;;;3.73;;
10174;SDS011;18221;38.704;0.152;2023-03-01T05:38:37;7.73;;;3.23;;
10174;SDS011;18221;38.704;0.152;2023-03-01T05:41:12;10.33;;;3.73;;
10174;SDS011;18221;38.704;0.152;2023-03-01T05:43:43;6.50;;;3.47;;
10174;SDS011;18221;38.704;0.152;2023-03-01T05:46:11;9.03;;;3.83;;
10174;SDS011;18221;38.704;0.152;2023-03-01T05:48:40;8.00;;;3.30;;
10174;SDS011;18221;38.704;0.152;2023-03-01T05:51:08;7.67;;;3.43;;
10174;SDS011;18221;38.704;0.152;2023-03-01T05:53:37;6.80;;;3.37;;
10174;SDS011;18221;38.704;0.152;2023-03-01T05:56:05;7.90;;;3.33;;
10174;SDS011;18221;38.704;0.152;2023-03-01T05:58:34;9.57;;;3.77;;
10174;SDS011;18221;38.704;0.152;2023-03-01T06:01:05;11.50;;;3.60;;
10174;SDS011;18221;38.704;0.152;2023-03-01T06:03:38;9.80;;;3.80;;
10174;SDS011;18221;38.704;0.152;2023-03-01T06:06:06;6.70;;;3.37;;
10174;SDS011;18221;38.704;0.152;2023-03-01T06:08:35;5.60;;;3.53;;
10174;SDS011;18221;38.704;0.152;2023-03-01T06:11:03;4.90;;;2.90;;
10174;SDS011;18221;38.704;0.152;2023-03-01T06:13:32;10.13;;;3.20;;
10174;SDS011;18221;38.704;0.152;2023-03-01T06:16:00;5.80;;;3.30;;
10174;SDS011;18221;38.704;0.152;2023-03-01T06:18:33;9.70;;;3.30;;
10174;SDS011;18221;38.704;0.152;2023-03-01T06:21:02;6.43;;;3.27;;
10174;SDS011;18221;38.704;0.152;2023-03-01T06:23:32;9.03;;;3.70;;
10174;SDS011;18221;38.704;0.152;2023-03-01T06:26:04;10.07;;;3.70;;
10174;SDS011;18221;38.704;0.152;2023-03-01T06:28:34;9.10;;;3.67;;
10174;SDS011;18221;38.704;0.152;2023-03-01T06:31:02;10.17;;;3.47;;
10174;SDS011;18221;38.704;0.152;2023-03-01T06:33:34;6.33;;;3.10;;
10174;SDS011;18221;38.704;0.152;2023-03-01T06:36:02;12.83;;;3.60;;
10174;SDS011;18221;38.704;0.152;2023-03-01T06:38:32;7.43;;;3.53;;
10174;SDS011;18221;38.704;0.152;2023-03-01T06:41:00;3.97;;;3.00;;
10174;SDS011;18221;38.704;0.152;2023-03-01T06:43:28;5.83;;;3.40;;
10174;SDS011;18221;38.704;0.152;2023-03-01T06:45:57;7.93;;;3.40;;
10174;SDS011;18221;38.704;0.152;2023-03-01T06:48:27;10.60;;;3.40;;
10174;SDS011;18221;38.704;0.152;2023-03-01T06:50:57;7.03;;;3.07;;
10174;SDS011;18221;38.704;0.152;2023-03-01T06:53:27;8.90;;;3.07;;
10174;SDS011;18221;38.704;0.152;2023-03-01T06:55:55;5.23;;;3.20;;
10174;SDS011;18221;38.704;0.152;2023-03-01T06:58:25;6.23;;;2.90;;
10174;SDS011;18221;38.704;0.152;2023-03-01T07:00:53;9.63;;;3.30;;
10174;SDS011;18221;38.704;0.152;2023-03-01T07:03:22;6.33;;;3.23;;
10174;SDS011;18221;38.704;0.152;2023-03-01T07:05:51;10.63;;;3.27;;
10174;SDS011;18221;38.704;0.152;2023-03-01T07:08:20;9.60;;;3.13;;
10174;SDS011;18221;38.704;0.152;2023-03-01T07:10:48;9.10;;;3.93;;
10174;SDS011;18221;38.704;0.152;2023-03-01T07:13:22;11.07;;;3.63;;
10174;SDS011;18221;38.704;0.152;2023-03-01T07:15:50;10.43;;;3.50;;
10174;SDS011;18221;38.704;0.152;2023-03-01T07:18:18;7.70;;;3.90;;
10174;SDS011;18221;38.704;0.152;2023-03-01T07:20:47;8.33;;;4.07;;
10174;SDS011;18221;38.704;0.152;2023-03-01T07:23:16;7.93;;;3.53;;
10174;SDS011;18221;38.704;0.152;2023-03-01T07:25:44;7.57;;;3.93;;
10174;SDS011;18221;38.704;0.152;2023-03-01T07:28:19;6.87;;;3.30;;
10174;SDS011;18221;38.704;0.152;2023-03-01T07:30:49;8.93;;;3.90;;
10174;SDS011;18221;38.704;0.152;2023-03-01T07:33:18;10.50;;;3.80;;
10174;SDS011;18221;38.704;0.152;2023-03-01T07:35:46;13.47;;;3.97;;
10174;SDS011;18221;38.704;0.152;2023-03-01T07:38:14;8.93;;;4.00;;
10174;SDS011;18221;38.704;0.152;2023-03-01T07:40:44;11.97;;;3.93;;
10174;SDS011;18221;38.704;0.152;2023-03-01T07:43:12;6.97;;;4.10;;
10174;SDS011;18221;38.704;0.152;2023-03-01T07:45:40;7.63;;;3.73;;
10174;SDS011;18221;38.704;0.152;2023-03-01T07:48:09;12.03;;;3.20;;
10174;SDS011;18221;38.704;0.152;2023-03-01T07:50:37;7.30;;;3.43;;
10174;SDS011;18221;38.704;0.152;2023-03-01T07:53:05;7.40;;;4.00;;
10174;SDS011;18221;38.704;0.152;2023-03-01T07:55:35;8.83;;;3.83;;
10174;SDS011;18221;38.704;0.152;2023-03-01T07:58:04;9.17;;;4.07;;
10174;SDS011;18221;38.704;0.152;2023-03-01T08:00:35;7.07;;;4.00;;
10174;SDS011;18221;38.704;0.152;2023-03-01T08:03:03;7.10;;;3.90;;
10174;SDS011;18221;38.704;0.152;2023-03-01T08:05:32;8.30;;;4.77;;
10174;SDS011;18221;38.704;0.152;2023-03-01T08:08:00;7.60;;;4.63;;
10174;SDS011;18221;38.704;0.152;2023-03-01T08:10:28;9.40;;;5.10;;
10174;SDS011;18221;38.704;0.152;2023-03-01T08:12:58;14.20;;;4.70;;
10174;SDS011;18221;38.704;0.152;2023-03-01T08:15:26;6.67;;;4.60;;
10174;SDS011;18221;38.704;0.152;2023-03-01T08:17:55;9.07;;;4.53;;
10174;SDS011;18221;38.704;0.152;2023-03-01T08:20:23;11.77;;;4.73;;
10174;SDS011;18221;38.704;0.152;2023-03-01T08:22:51;11.10;;;4.20;;
10174;SDS011;18221;38.704;0.152;2023-03-01T08:25:20;6.80;;;4.20;;
10174;SDS011;18221;38.704;0.152;2023-03-01T08:27:48;11.33;;;4.30;;
10174;SDS011;18221;38.704;0.152;2023-03-01T08:30:18;13.30;;;4.70;;
10174;SDS011;18221;38.704;0.152;2023-03-01T08:32:49;9.20;;;4.30;;
10174;SDS011;18221;38.704;0.152;2023-03-01T08:35:17;9.17;;;4.43;;
10174;SDS011;18221;38.704;0.152;2023-03-01T08:37:47;10.37;;;4.50;;
10174;SDS011;18221;38.704;0.152;2023-03-01T08:40:16;8.87;;;3.97;;
10174;SDS011;18221;38.704;0.152;2023-03-01T08:42:44;6.70;;;4.20;;
10174;SDS011;18221;38.704;0.152;2023-03-01T08:45:13;10.17;;;4.80;;
10174;SDS011;18221;38.704;0.152;2023-03-01T08:47:45;11.43;;;4.33;;
10174;SDS011;18221;38.704;0.152;2023-03-01T08:50:13;14.43;;;5.13;;
10174;SDS011;18221;38.704;0.152;2023-03-01T08:52:42;9.73;;;4.93;;
10174;SDS011;18221;38.704;0.152;2023-03-01T08:55:10;9.93;;;5.27;;
10174;SDS011;18221;38.704;0.152;2023-03-01T08:57:40;10.53;;;4.77;;
10174;SDS011;18221;38.704;0.152;2023-03-01T09:00:09;9.27;;;4.20;;
10174;SDS011;18221;38.704;0.152;2023-03-01T09:02:40;9.10;;;4.17;;
10174;SDS011;18221;38.704;0.152;2023-03-01T09:05:10;9.00;;;4.87;;
10174;SDS011;18221;38.704;0.152;2023-03-01T09:07:38;10.67;;;5.30;;
10174;SDS011;18221;38.704;0.152;2023-03-01T09:10:06;6.43;;;3.80;;
10174;SDS011;18221;38.704;0.152;2023-03-01T09:12:36;11.53;;;5.43;;
10174;SDS011;18221;38.704;0.152;2023-03-01T09:15:05;13.50;;;6.23;;
10174;SDS011;18221;38.704;0.152;2023-03-01T09:17:35;13.97;;;5.60;;
10174;SDS011;18221;38.704;0.152;2023-03-01T09:20:04;9.60;;;4.63;;
10174;SDS011;18221;38.704;0.152;2023-03-01T09:22:35;9.80;;;5.00;;
10174;SDS011;18221;38.704;0.152;2023-03-01T09:25:04;9.13;;;4.80;;
10174;SDS011;18221;38.704;0.152;2023-03-01T09:27:35;10.07;;;4.43;;
10174;SDS011;18221;38.704;0.152;2023-03-01T09:30:03;10.00;;;4.20;;
10174;SDS011;18221;38.704;0.152;2023-03-01T09:32:33;5.40;;;3.63;;
10174;SDS011;18221;38.704;0.152;2023-03-01T09:35:02;8.20;;;3.30;;
10174;SDS011;18221;38.704;0.152;2023-03-01T09:37:32;7.40;;;3.40;;
10174;SDS011;18221;38.704;0.152;2023-03-01T09:40:03;7.27;;;3.60;;
10174;SDS011;18221;38.704;0.152;2023-03-01T09:42:46;9.50;;;3.17;;
10174;SDS011;18221;38.704;0.152;2023-03-01T09:45:28;6.23;;;3.00;;
10174;SDS011;18221;38.704;0.152;2023-03-01T09:48:02;4.70;;;2.83;;
10174;SDS011;18221;38.704;0.152;2023-03-01T09:50:40;5.87;;;2.80;;
10174;SDS011;18221;38.704;0.152;2023-03-01T09:53:15;8.23;;;3.07;;
10174;SDS011;18221;38.704;0.152;2023-03-01T09:55:46;3.67;;;2.63;;
10174;SDS011;18221;38.704;0.152;2023-03-01T09:58:31;4.90;;;2.70;;
10174;SDS011;18221;38.704;0.152;2023-03-01T10:01:22;5.67;;;3.30;;
10174;SDS011;18221;38.704;0.152;2023-03-01T10:04:11;4.00;;;2.60;;
10174;SDS011;18221;38.704;0.152;2023-03-01T10:07:03;6.60;;;2.73;;
10174;SDS011;18221;38.704;0.152;2023-03-01T10:09:49;4.27;;;2.80;;
10174;SDS011;18221;38.704;0.152;2023-03-01T10:12:19;7.57;;;3.10;;
10174;SDS011;18221;38.704;0.152;2023-03-01T10:14:54;5.47;;;3.00;;
10174;SDS011;18221;38.704;0.152;2023-03-01T10:17:32;5.13;;;2.93;;
10174;SDS011;18221;38.704;0.152;2023-03-01T10:20:17;5.07;;;3.10;;
10174;SDS011;18221;38.704;0.152;2023-03-01T10:22:49;4.73;;;2.60;;
10174;SDS011;18221;38.704;0.152;2023-03-01T10:25:35;9.93;;;3.37;;
10174;SDS011;18221;38.704;0.152;2023-03-01T10:28:16;3.10;;;2.27;;
10174;SDS011;18221;38.704;0.152;2023-03-01T10:30:51;3.53;;;2.60;;
10174;SDS011;18221;38.704;0.152;2023-03-01T10:33:21;6.27;;;2.73;;
10174;SDS011;18221;38.704;0.152;2023-03-01T10:35:54;4.47;;;2.70;;
10174;SDS011;18221;38.704;0.152;2023-03-01T10:38:23;4.30;;;2.67;;
10174;SDS011;18221;38.704;0.152;2023-03-01T10:40:55;4.10;;;2.80;;
10174;SDS011;18221;38.704;0.152;2023-03-01T10:43:29;6.63;;;2.70;;
10174;SDS011;18221;38.704;0.152;2023-03-01T10:46:21;6.60;;;2.93;;
10174;SDS011;18221;38.704;0.152;2023-03-01T10:49:12;7.50;;;3.07;;
10174;SDS011;18221;38.704;0.152;2023-03-01T10:51:44;5.50;;;2.70;;
10174;SDS011;18221;38.704;0.152;2023-03-01T10:54:17;5.53;;;2.77;;
10174;SDS011;18221;38.704;0.152;2023-03-01T10:56:50;4.43;;;2.50;;
10174;SDS011;18221;38.704;0.152;2023-03-01T10:59:26;8.53;;;2.90;;
10174;SDS011;18221;38.704;0.152;2023-03-01T11:02:02;6.30;;;2.90;;
10174;SDS011;18221;38.704;0.152;2023-03-01T11:04:56;5.00;;;2.90;;
10174;SDS011;18221;38.704;0.152;2023-03-01T11:07:27;5.30;;;2.80;;
10174;SDS011;18221;38.704;0.152;2023-03-01T11:09:56;6.77;;;2.80;;
10174;SDS011;18221;38.704;0.152;2023-03-01T11:12:26;6.13;;;3.00;;
10174;SDS011;18221;38.704;0.152;2023-03-01T11:14:55;5.67;;;2.87;;
10174;SDS011;18221;38.704;0.152;2023-03-01T11:17:25;5.37;;;2.73;;
10174;SDS011;18221;38.704;0.152;2023-03-01T11:20:01;9.17;;;3.30;;
10174;SDS011;18221;38.704;0.152;2023-03-01T11:22:44;5.80;;;2.60;;
10174;SDS011;18221;38.704;0.152;2023-03-01T11:25:19;4.90;;;2.50;;
10174;SDS011;18221;38.704;0.152;2023-03-01T11:27:53;5.23;;;2.50;;
10174;SDS011;18221;38.704;0.152;2023-03-01T11:30:24;6.83;;;2.70;;
10174;SDS011;18221;38.704;0.152;2023-03-01T11:33:02;5.20;;;2.93;;
10174;SDS011;18221;38.704;0.152;2023-03-01T11:35:46;9.90;;;3.20;;
10174;SDS011;18221;38.704;0.152;2023-03-01T11:38:25;4.53;;;3.10;;
10174;SDS011;18221;38.704;0.152;2023-03-01T11:40:57;4.87;;;3.10;;
10174;SDS011;18221;38.704;0.152;2023-03-01T11:43:35;3.77;;;2.23;;
10174;SDS011;18221;38.704;0.152;2023-03-01T11:49:41;5.30;;;2.90;;
10174;SDS011;18221;38.704;0.152;2023-03-01T11:52:44;13.17;;;3.10;;
10174;SDS011;18221;38.704;0.152;2023-03-01T11:55:30;7.93;;;2.87;;
10174;SDS011;18221;38.704;0.152;2023-03-01T12:01:37;6.30;;;2.67;;
10174;SDS011;18221;38.704;0.152;2023-03-01T12:04:37;5.87;;;3.17;;
10174;SDS011;18221;38.704;0.152;2023-03-01T12:08:08;10.13;;;3.07;;
10174;SDS011;18221;38.704;0.152;2023-03-01T12:10:47;3.53;;;2.63;;
10174;SDS011;18221;38.704;0.152;2023-03-01T12:13:42;9.20;;;4.00;;
10174;SDS011;18221;38.704;0.152;2023-03-01T12:16:42;9.40;;;3.00;;
10174;SDS011;18221;38.704;0.152;2023-03-01T12:20:01;3.23;;;2.30;;
10174;SDS011;18221;38.704;0.152;2023-03-01T12:22:52;5.63;;;2.60;;
10174;SDS011;18221;38.704;0.152;2023-03-01T12:25:55;4.20;;;2.70;;
10174;SDS011;18221;38.704;0.152;2023-03-01T12:38:10;3.73;;;2.70;;
10174;SDS011;18221;38.704;0.152;2023-03-01T12:41:16;4.23;;;2.57;;
10174;SDS011;18221;38.704;0.152;2023-03-01T12:44:14;6.70;;;2.90;;
10174;SDS011;18221;38.704;0.152;2023-03-01T12:47:01;5.40;;;2.50;;
10174;SDS011;18221;38.704;0.152;2023-03-01T12:49:47;3.43;;;2.53;;
10174;SDS011;18221;38.704;0.152;2023-03-01T12:52:23;5.97;;;2.93;;
10174;SDS011;18221;38.704;0.152;2023-03-01T12:55:06;5.13;;;2.90;;
10174;SDS011;18221;38.704;0.152;2023-03-01T12:57:53;4.87;;;2.80;;
10174;SDS011;18221;38.704;0.152;2023-03-01T13:00:38;3.90;;;2.73;;
10174;SDS011;18221;38.704;0.152;2023-03-01T13:03:21;4.17;;;2.80;;
10174;SDS011;18221;38.704;0.152;2023-03-01T13:06:07;6.17;;;2.93;;
10174;SDS011;18221;38.704;0.152;2023-03-01T13:08:43;4.87;;;2.50;;
10174;SDS011;18221;38.704;0.152;2023-03-01T13:11:22;5.27;;;2.70;;
10174;SDS011;18221;38.704;0.152;2023-03-01T13:13:51;4.20;;;2.70;;
10174;SDS011;18221;38.704;0.152;2023-03-01T13:16:41;4.73;;;2.77;;
10174;SDS011;18221;38.704;0.152;2023-03-01T13:19:15;5.53;;;2.30;;
10174;SDS011;18221;38.704;0.152;2023-03-01T13:21:46;5.03;;;2.60;;
10174;SDS011;18221;38.704;0.152;2023-03-01T13:24:26;6.77;;;2.63;;
10174;SDS011;18221;38.704;0.152;2023-03-01T13:27:09;4.27;;;2.30;;
10174;SDS011;18221;38.704;0.152;2023-03-01T13:29:56;5.63;;;2.90;;
10174;SDS011;18221;38.704;0.152;2023-03-01T13:32:32;4.60;;;2.40;;
10174;SDS011;18221;38.704;0.152;2023-03-01T13:35:06;5.43;;;2.40;;
10174;SDS011;18221;38.704;0.152;2023-03-01T13:41:12;4.77;;;2.60;;
10174;SDS011;18221;38.704;0.152;2023-03-01T13:43:44;4.27;;;2.20;;
10174;SDS011;18221;38.704;0.152;2023-03-01T13:46:16;4.63;;;2.30;;
10174;SDS011;18221;38.704;0.152;2023-03-01T13:48:52;5.07;;;2.63;;
10174;SDS011;18221;38.704;0.152;2023-03-01T13:51:25;6.13;;;2.70;;
10174;SDS011;18221;38.704;0.152;2023-03-01T13:53:55;7.53;;;2.00;;
10174;SDS011;18221;38.704;0.152;2023-03-01T13:56:27;4.37;;;2.10;;
10174;SDS011;18221;38.704;0.152;2023-03-01T13:59:04;3.73;;;2.40;;
10174;SDS011;18221;38.704;0.152;2023-03-01T14:01:40;8.43;;;2.20;;
10174;SDS011;18221;38.704;0.152;2023-03-01T14:04:19;3.17;;;2.00;;
10174;SDS011;18221;38.704;0.152;2023-03-01T14:06:51;4.33;;;2.17;;
10174;SDS011;18221;38.704;0.152;2023-03-01T14:09:35;4.63;;;2.10;;
10174;SDS011;18221;38.704;0.152;2023-03-01T14:12:15;5.27;;;2.20;;
10174;SDS011;18221;38.704;0.152;2023-03-01T14:14:57;6.37;;;2.30;;
10174;SDS011;18221;38.704;0.152;2023-03-01T14:20:32;6.53;;;2.37;;
10174;SDS011;18221;38.704;0.152;2023-03-01T14:23:09;4.47;;;2.30;;
10174;SDS011;18221;38.704;0.152;2023-03-01T14:25:46;3.17;;;1.90;;
10174;SDS011;18221;38.704;0.152;2023-03-01T14:28:17;3.30;;;2.00;;
10174;SDS011;18221;38.704;0.152;2023-03-01T14:30:50;4.03;;;2.10;;
10174;SDS011;18221;38.704;0.152;2023-03-01T14:33:21;4.33;;;2.20;;
10174;SDS011;18221;38.704;0.152;2023-03-01T14:35:54;3.43;;;2.00;;
10174;SDS011;18221;38.704;0.152;2023-03-01T14:38:30;5.03;;;2.37;;
10174;SDS011;18221;38.704;0.152;2023-03-01T14:41:02;5.37;;;2.30;;
10174;SDS011;18221;38.704;0.152;2023-03-01T14:43:35;4.53;;;2.40;;
10174;SDS011;18221;38.704;0.152;2023-03-01T14:46:16;4.90;;;2.33;;
10174;SDS011;18221;38.704;0.152;2023-03-01T14:48:48;5.57;;;2.57;;
10174;SDS011;18221;38.704;0.152;2023-03-01T14:51:21;7.97;;;2.27;;
10174;SDS011;18221;38.704;0.152;2023-03-01T14:53:50;5.67;;;2.17;;
10174;SDS011;18221;38.704;0.152;2023-03-01T14:56:19;8.13;;;2.27;;
10174;SDS011;18221;38.704;0.152;2023-03-01T14:58:50;3.83;;;2.00;;
10174;SDS011;18221;38.704;0.152;2023-03-01T15:01:20;7.77;;;2.67;;
10174;SDS011;18221;38.704;0.152;2023-03-01T15:03:49;2.97;;;2.23;;
10174;SDS011;18221;38.704;0.152;2023-03-01T15:06:19;4.23;;;1.97;;
10174;SDS011;18221;38.704;0.152;2023-03-01T15:08:50;5.07;;;2.10;;
10174;SDS011;18221;38.704;0.152;2023-03-01T15:11:22;5.23;;;2.03;;
10174;SDS011;18221;38.704;0.152;2023-03-01T15:13:54;4.73;;;1.97;;
10174;SDS011;18221;38.704;0.152;2023-03-01T15:16:24;5.80;;;2.43;;
10174;SDS011;18221;38.704;0.152;2023-03-01T15:18:56;8.07;;;2.83;;
10174;SDS011;18221;38.704;0.152;2023-03-01T15:21:29;2.67;;;2.07;;
10174;SDS011;18221;38.704;0.152;2023-03-01T15:24:02;9.47;;;2.30;;
10174;SDS011;18221;38.704;0.152;2023-03-01T15:26:50;3.50;;;1.90;;
10174;SDS011;18221;38.704;0.152;2023-03-01T15:29:23;3.93;;;1.93;;
10174;SDS011;18221;38.704;0.152;2023-03-01T15:31:56;3.97;;;1.90;;
10174;SDS011;18221;38.704;0.152;2023-03-01T15:34:29;2.83;;;2.10;;
10174;SDS011;18221;38.704;0.152;2023-03-01T15:37:01;4.10;;;1.90;;
10174;SDS011;18221;38.704;0.152;2023-03-01T15:39:34;3.63;;;1.87;;
10174;SDS011;18221;38.704;0.152;2023-03-01T15:42:09;5.10;;;2.13;;
10174;SDS011;18221;38.704;0.152;2023-03-01T15:44:41;5.73;;;2.13;;